Time;durP1;ratioP1;P1;durP2;ratioP2;P2;SDS_P1;SDS_P2;PMS_P1;PMS_P2;Temp;Humidity;BMP_temperature;BMP_pressure;BME280_temperature;BME280_humidity;BME280_pressure;Samples;Min_cycle;Max_cycle;Signal;HPM_P1;HPM_P2
2022/08/24 00:00:09;;;;;;;;;4.75;3.75;;;;;24.85;48.73;101037.56;5080439;27;45284;-56
2022/08/24 00:02:34;;;;;;;;;6.00;3.00;;;;;24.84;49.17;101034.03;5080475;27;46096;-57
2022/08/24 00:05:00;;;;;;;;;5.00;4.00;;;;;24.80;48.82;101038.78;5077457;27;64812;-56
2022/08/24 00:07:25;;;;;;;;;5.75;5.50;;;;;24.80;48.80;101037.94;5075505;28;45438;-55
2022/08/24 00:09:50;;;;;;;;;3.50;3.50;;;;;24.78;49.07;101032.72;5052082;28;45410;-56
2022/08/24 00:12:16;;;;;;;;;6.00;4.75;;;;;24.75;49.53;101032.94;5062890;28;62478;-56
2022/08/24 00:14:41;;;;;;;;;5.00;4.00;;;;;24.72;49.39;101033.22;5054382;28;58986;-57
2022/08/24 00:17:07;;;;;;;;;7.25;4.00;;;;;24.71;49.21;101042.22;5070749;27;67457;-56
2022/08/24 00:19:32;;;;;;;;;3.25;3.25;;;;;24.71;49.43;101030.69;5065673;28;45229;-56
2022/08/24 00:21:59;;;;;;;;;6.00;4.00;;;;;24.70;49.57;101029.84;5071940;27;46096;-56
2022/08/24 00:24:25;;;;;;;;;4.75;4.75;;;;;24.71;49.27;101031.50;5063131;28;45240;-56
2022/08/24 00:26:50;;;;;;;;;3.00;3.00;;;;;24.70;49.84;101032.50;5079919;27;45166;-56
2022/08/24 00:29:17;;;;;;;;;5.00;4.50;;;;;24.66;49.75;101031.03;5056933;28;45407;-56
2022/08/24 00:31:42;;;;;;;;;4.50;4.50;;;;;24.64;49.81;101033.84;5058506;27;48484;-56
2022/08/24 00:34:08;;;;;;;;;6.00;4.00;;;;;24.63;49.72;101025.97;5067693;27;55297;-56
2022/08/24 00:36:33;;;;;;;;;3.25;2.75;;;;;24.62;49.90;101033.13;5079439;28;45484;-56
2022/08/24 00:38:59;;;;;;;;;3.25;3.00;;;;;24.62;49.87;101032.28;5064440;28;45407;-56
2022/08/24 00:41:26;;;;;;;;;3.75;3.50;;;;;24.60;49.96;101036.91;5067016;28;45638;-55
2022/08/24 00:44:03;;;;;;;;;5.50;3.75;;;;;24.59;50.38;101036.03;5074862;27;45250;-55
2022/08/24 00:46:49;;;;;;;;;7.00;3.00;;;;;24.57;50.41;101026.44;5065756;28;45281;-55
2022/08/24 00:49:20;;;;;;;;;4.50;3.00;;;;;24.56;50.27;101027.41;5053456;28;45340;-55
2022/08/24 00:52:05;;;;;;;;;3.25;3.25;;;;;24.55;50.43;101025.72;5073922;27;45465;-56
2022/08/24 00:54:41;;;;;;;;;3.00;3.00;;;;;24.54;50.30;101022.22;5069833;28;45350;-54
2022/08/24 00:57:09;;;;;;;;;5.50;3.00;;;;;24.54;50.44;101027.56;5086699;27;45325;-55
2022/08/24 00:59:58;;;;;;;;;4.25;3.25;;;;;24.51;50.68;101026.94;5063204;28;45478;-54
2022/08/24 01:02:29;;;;;;;;;2.50;2.50;;;;;24.48;50.69;101025.34;5046194;28;46335;-56
2022/08/24 01:04:58;;;;;;;;;4.50;3.50;;;;;24.46;50.70;101021.94;5055001;27;45260;-54
2022/08/24 01:07:26;;;;;;;;;4.75;3.00;;;;;24.45;50.87;101028.25;5071631;27;45456;-56
2022/08/24 01:09:53;;;;;;;;;6.25;4.00;;;;;24.43;50.60;101033.75;5064531;28;45371;-56
2022/08/24 01:12:19;;;;;;;;;4.75;4.00;;;;;24.40;51.38;101030.44;5080252;27;46318;-56
2022/08/24 01:14:44;;;;;;;;;7.00;5.00;;;;;24.37;51.12;101020.84;5089255;27;45275;-56
2022/08/24 01:19:57;;;;;;;;;3.25;3.25;;;;;24.32;51.50;101022.22;5062402;27;45331;-55
2022/08/24 01:22:37;;;;;;;;;5.25;4.50;;;;;24.26;51.78;101024.41;5055959;28;46183;-55
2022/08/24 01:25:04;;;;;;;;;7.75;4.00;;;;;24.22;51.95;101027.44;5059598;28;45485;-56
2022/08/24 01:27:29;;;;;;;;;4.50;3.75;;;;;24.17;52.02;101021.59;5070719;27;45370;-57
2022/08/24 01:29:56;;;;;;;;;4.25;4.25;;;;;24.15;51.89;101028.91;5076813;27;62686;-56
2022/08/24 01:32:23;;;;;;;;;1.75;1.75;;;;;24.12;51.96;101029.16;5058659;27;45234;-56
2022/08/24 01:34:49;;;;;;;;;4.75;2.50;;;;;24.07;52.24;101027.69;5080601;27;45287;-56
2022/08/24 01:37:14;;;;;;;;;6.50;4.00;;;;;24.06;52.47;101034.03;5074742;27;69085;-56
2022/08/24 01:39:43;;;;;;;;;3.00;2.75;;;;;24.03;52.10;101031.59;5057447;28;62135;-56
2022/08/24 01:42:09;;;;;;;;;4.00;4.00;;;;;24.02;53.35;101037.06;5073592;28;45620;-55
2022/08/24 01:44:37;;;;;;;;;5.75;3.50;;;;;23.97;53.06;101034.72;5040266;28;45924;-55
2022/08/24 01:47:04;;;;;;;;;3.75;3.75;;;;;23.94;53.01;101036.78;5076269;27;45447;-57
2022/08/24 01:49:33;;;;;;;;;6.00;4.25;;;;;23.93;53.38;101035.13;5078884;27;45472;-55
2022/08/24 01:51:59;;;;;;;;;6.00;6.00;;;;;23.90;53.34;101033.50;5075837;27;45433;-55
2022/08/24 01:54:25;;;;;;;;;6.25;4.75;;;;;23.87;52.94;101031.09;5073705;27;45793;-55
2022/08/24 01:56:51;;;;;;;;;7.00;5.00;;;;;23.86;53.15;101032.91;5053062;28;45359;-56
2022/08/24 01:59:19;;;;;;;;;5.00;4.50;;;;;23.85;53.15;101030.34;5073467;28;45485;-56
2022/08/24 02:01:48;;;;;;;;;6.25;4.00;;;;;23.82;53.38;101033.28;5075304;28;45626;-56
2022/08/24 02:04:14;;;;;;;;;4.50;4.00;;;;;23.79;53.48;101030.81;5075865;27;45360;-56
2022/08/24 02:06:40;;;;;;;;;5.75;5.75;;;;;23.78;53.31;101032.63;5072573;27;45336;-56
2022/08/24 02:09:05;;;;;;;;;6.75;4.00;;;;;23.80;53.57;101030.72;5080121;27;45240;-56
2022/08/24 02:11:31;;;;;;;;;6.00;4.75;;;;;23.78;54.10;101027.28;5053705;28;46117;-56
2022/08/24 02:13:57;;;;;;;;;5.00;4.75;;;;;23.77;53.93;101027.41;5050490;28;46031;-56
2022/08/24 02:16:22;;;;;;;;;5.00;3.50;;;;;23.77;53.34;101024.75;5075650;28;45459;-57
2022/08/24 02:18:48;;;;;;;;;3.25;3.25;;;;;23.75;54.03;101022.19;5080184;28;45276;-57
2022/08/24 02:21:14;;;;;;;;;6.25;6.00;;;;;23.72;53.66;101027.75;5067570;28;68955;-55
2022/08/24 02:23:40;;;;;;;;;4.50;4.50;;;;;23.72;53.98;101018.91;5057580;28;45327;-57
2022/08/24 02:26:08;;;;;;;;;5.00;5.00;;;;;23.68;53.65;101028.97;5070470;28;45359;-57
2022/08/24 02:28:34;;;;;;;;;5.00;3.00;;;;;23.68;54.14;101028.97;5077037;28;45256;-57
2022/08/24 02:31:00;;;;;;;;;8.00;6.75;;;;;23.67;54.09;101030.81;5076926;27;47187;-56
2022/08/24 02:33:26;;;;;;;;;6.25;6.00;;;;;23.67;53.75;101029.94;5076663;28;45605;-58
2022/08/24 02:35:53;;;;;;;;;8.00;5.50;;;;;23.68;54.24;101028.97;5076566;27;59775;-57
2022/08/24 02:38:18;;;;;;;;;6.00;5.00;;;;;23.67;54.55;101032.59;5065807;28;45530;-57
2022/08/24 02:40:44;;;;;;;;;7.50;5.75;;;;;23.64;54.38;101027.53;5075650;27;46043;-57
2022/08/24 02:43:09;;;;;;;;;7.50;6.25;;;;;23.61;53.98;101022.41;5070168;28;45281;-57
2022/08/24 02:45:42;;;;;;;;;8.00;7.00;;;;;23.61;54.61;101033.09;5062062;28;45375;-57
2022/08/24 02:48:09;;;;;;;;;11.00;8.00;;;;;23.58;54.53;101028.81;5074196;27;45450;-56
2022/08/24 02:50:38;;;;;;;;;12.75;11.25;;;;;23.56;54.64;101029.94;5072595;27;46307;-57
2022/08/24 02:53:03;;;;;;;;;10.25;7.50;;;;;23.53;54.74;101036.34;5076947;27;45222;-57
2022/08/24 02:55:29;;;;;;;;;12.25;10.00;;;;;23.52;55.27;101033.81;5078471;27;69233;-56
2022/08/24 02:57:54;;;;;;;;;12.75;10.75;;;;;23.47;54.92;101031.47;5057104;28;45514;-57
2022/08/24 03:00:22;;;;;;;;;10.50;10.00;;;;;23.46;55.05;101033.31;5075221;28;46266;-56
2022/08/24 03:02:48;;;;;;;;;14.00;12.25;;;;;23.46;54.63;101035.13;5039112;28;45435;-56
2022/08/24 03:05:14;;;;;;;;;12.75;11.75;;;;;23.45;54.89;101038.78;5072343;27;45509;-56
2022/08/24 03:07:39;;;;;;;;;15.25;12.00;;;;;23.42;54.77;101031.81;5077633;28;45444;-56
2022/08/24 03:10:06;;;;;;;;;10.50;10.50;;;;;23.42;55.37;101025.63;5049344;28;45418;-57
2022/08/24 03:12:33;;;;;;;;;12.00;11.25;;;;;23.40;55.35;101030.25;5059241;28;45389;-57
2022/08/24 03:14:58;;;;;;;;;17.75;13.25;;;;;23.41;55.21;101031.94;5070106;27;45351;-56
2022/08/24 03:17:24;;;;;;;;;16.75;14.00;;;;;23.40;55.19;101024.91;5073914;27;45320;-56
2022/08/24 03:19:49;;;;;;;;;13.50;10.25;;;;;23.41;55.80;101035.47;5068586;27;74612;-56
2022/08/24 03:22:14;;;;;;;;;13.75;11.75;;;;;23.39;55.55;101034.75;5069273;27;67860;-57
2022/08/24 03:24:40;;;;;;;;;6.50;6.00;;;;;23.40;55.67;101041.78;5075358;28;61790;-56
2022/08/24 03:27:05;;;;;;;;;12.25;12.25;;;;;23.39;55.33;101032.09;5072255;28;45218;-56
2022/08/24 03:29:32;;;;;;;;;9.75;9.25;;;;;23.35;55.59;101027.09;5060925;28;45598;-56
2022/08/24 03:31:57;;;;;;;;;10.25;9.25;;;;;23.32;56.07;101020.16;5072124;27;45775;-55
2022/08/24 03:34:23;;;;;;;;;12.75;10.75;;;;;23.30;55.76;101028.28;5068821;28;45218;-55
2022/08/24 03:36:48;;;;;;;;;12.50;11.50;;;;;23.28;55.94;101024.03;5078372;27;45351;-57
2022/08/24 03:39:14;;;;;;;;;9.75;8.25;;;;;23.28;56.10;101029.34;5059223;28;47014;-57
2022/08/24 03:41:40;;;;;;;;;12.50;11.50;;;;;23.26;56.09;101023.28;5057972;28;45362;-56
2022/08/24 03:44:05;;;;;;;;;11.00;11.00;;;;;23.24;55.81;101022.56;5060609;28;48752;-54
2022/08/24 03:46:35;;;;;;;;;12.00;9.50;;;;;23.21;56.54;101018.28;5078670;27;63985;-55
2022/08/24 03:49:03;;;;;;;;;13.50;7.50;;;;;23.17;56.32;101015.97;5049800;28;48654;-56
2022/08/24 03:51:29;;;;;;;;;9.75;9.75;;;;;23.13;57.01;101021.53;5072134;28;45933;-56
2022/08/24 03:53:57;;;;;;;;;11.75;8.75;;;;;23.11;56.27;101023.47;5058704;28;45296;-57
2022/08/24 03:56:22;;;;;;;;;12.00;10.00;;;;;23.08;57.17;101013.03;5048821;28;45527;-57
2022/08/24 03:58:48;;;;;;;;;7.00;6.50;;;;;23.06;57.23;101016.78;5067653;28;46264;-57
2022/08/24 04:01:16;;;;;;;;;9.75;7.75;;;;;23.03;56.59;101017.00;5077868;27;45273;-56
2022/08/24 04:03:43;;;;;;;;;10.50;8.75;;;;;23.03;56.25;101022.31;5059835;28;45342;-56
2022/08/24 04:06:09;;;;;;;;;11.25;9.75;;;;;;;;5046975;28;46426;-56
2022/08/24 04:08:35;;;;;;;;;16.00;10.25;;;;;23.05;56.92;101018.59;5082070;27;45364;-57
2022/08/24 04:11:00;;;;;;;;;12.75;10.75;;;;;;;;5053360;28;45338;-57
2022/08/24 04:13:30;;;;;;;;;11.50;10.75;;;;;;;;5076032;27;45486;-56
2022/08/24 04:15:56;;;;;;;;;15.50;10.00;;;;;23.03;57.16;101017.00;5068569;27;45609;-56
2022/08/24 04:18:21;;;;;;;;;10.00;9.50;;;;;22.99;57.17;101016.38;5069076;28;46108;-63
2022/08/24 04:20:47;;;;;;;;;11.50;9.00;;;;;22.98;57.18;101022.66;5075928;27;63917;-56
2022/08/24 04:23:14;;;;;;;;;7.75;7.75;;;;;22.98;56.93;101021.81;5080088;27;45231;-56
2022/08/24 04:25:46;;;;;;;;;8.50;7.50;;;;;22.97;57.23;101020.97;5077199;27;45280;-56
2022/08/24 04:28:17;;;;;;;;;10.00;8.50;;;;;22.96;57.63;101015.75;5080748;27;45407;-55
2022/08/24 04:30:44;;;;;;;;;6.50;6.50;;;;;22.95;57.80;101020.25;5062994;28;45796;-54
2022/08/24 04:33:11;;;;;;;;;8.00;6.50;;;;;22.94;57.41;101013.19;5071284;27;45401;-57
2022/08/24 04:35:42;;;;;;;;;6.25;5.25;;;;;22.92;57.22;101020.47;5059145;28;45539;-57
2022/08/24 04:38:08;;;;;;;;;7.00;6.50;;;;;22.89;57.79;101026.88;5059068;27;46305;-56
2022/08/24 04:40:34;;;;;;;;;8.25;7.25;;;;;22.90;57.88;101019.72;5075589;27;45315;-55
2022/08/24 04:43:00;;;;;;;;;6.75;5.00;;;;;22.90;57.87;101017.06;5073938;27;45300;-57
2022/08/24 04:45:27;;;;;;;;;5.00;5.00;;;;;22.90;57.67;101014.41;5051697;28;45560;-56
2022/08/24 04:47:52;;;;;;;;;11.50;6.00;;;;;22.91;57.48;101008.06;5072378;28;46024;-56
2022/08/24 04:50:17;;;;;;;;;10.00;7.25;;;;;22.91;57.82;101016.06;5057719;28;45246;-57
2022/08/24 04:52:43;;;;;;;;;6.50;5.00;;;;;22.89;58.53;101010.00;5071719;28;45348;-57
2022/08/24 04:55:09;;;;;;;;;5.75;5.50;;;;;22.84;57.59;101013.03;5081647;27;45366;-56
2022/08/24 04:57:34;;;;;;;;;8.00;6.00;;;;;22.85;58.29;101009.38;5043533;28;45349;-56
2022/08/24 04:59:59;;;;;;;;;8.50;6.00;;;;;22.83;58.25;101018.50;5076467;27;68624;-56
2022/08/24 05:02:25;;;;;;;;;6.75;6.25;;;;;22.79;58.04;101017.00;5073725;27;45422;-56
2022/08/24 05:04:51;;;;;;;;;5.00;5.00;;;;;22.77;57.98;101024.25;5069174;28;45365;-56
2022/08/24 05:07:17;;;;;;;;;6.00;5.00;;;;;22.75;58.20;101017.25;5076801;28;45522;-56
2022/08/24 05:09:43;;;;;;;;;7.00;4.75;;;;;22.76;58.29;101020.75;5048300;28;45263;-56
2022/08/24 05:12:09;;;;;;;;;5.00;5.00;;;;;22.74;57.97;101017.34;5080364;27;45552;-56
2022/08/24 05:14:34;;;;;;;;;7.75;6.00;;;;;22.74;57.99;101025.34;5074002;27;45240;-57
2022/08/24 05:17:00;;;;;;;;;6.00;4.75;;;;;22.72;58.18;101019.28;5080307;27;45234;-56
2022/08/24 05:19:25;;;;;;;;;7.75;6.00;;;;;22.74;57.92;101022.69;5080732;27;57224;-57
2022/08/24 05:21:50;;;;;;;;;7.75;5.50;;;;;22.75;58.12;101024.38;5075896;28;50978;-56
2022/08/24 05:24:16;;;;;;;;;6.25;4.50;;;;;22.78;58.14;101028.66;5073195;28;68559;-57
2022/08/24 05:26:42;;;;;;;;;5.25;3.50;;;;;22.75;58.57;101027.03;5070950;28;45894;-56
2022/08/24 05:29:07;;;;;;;;;5.25;5.25;;;;;22.77;57.85;101024.25;5067271;28;45777;-55
2022/08/24 05:31:33;;;;;;;;;6.75;5.00;;;;;22.78;58.32;101037.50;5056271;27;45354;-55
2022/08/24 05:34:00;;;;;;;;;6.50;6.00;;;;;22.77;57.83;101033.13;5074116;27;45377;-55
2022/08/24 05:36:34;;;;;;;;;8.75;6.50;;;;;22.78;58.28;101026.81;5062506;28;45651;-57
2022/08/24 05:39:02;;;;;;;;;8.75;7.00;;;;;22.79;58.02;101028.53;5062538;28;46017;-55
2022/08/24 05:41:28;;;;;;;;;9.00;7.00;;;;;22.80;57.95;101029.38;5075646;28;45387;-55
2022/08/24 05:43:53;;;;;;;;;8.25;6.75;;;;;22.81;58.20;101034.59;5049375;28;45433;-57
2022/08/24 05:46:19;;;;;;;;;6.00;5.00;;;;;22.82;58.51;101033.63;5073541;28;46409;-56
2022/08/24 05:48:44;;;;;;;;;7.75;7.25;;;;;22.81;58.25;101033.75;5067450;28;45314;-55
2022/08/24 05:51:10;;;;;;;;;11.00;7.25;;;;;22.78;58.89;101037.50;5069888;27;45285;-55
2022/08/24 05:53:37;;;;;;;;;7.50;6.00;;;;;22.77;58.55;101038.47;5067664;28;45277;-56
2022/08/24 05:56:09;;;;;;;;;6.25;6.00;;;;;22.76;58.40;101039.44;5066825;28;46292;-56
2022/08/24 05:58:36;;;;;;;;;5.75;4.50;;;;;22.77;58.31;101038.47;5072368;28;46260;-56
2022/08/24 06:01:12;;;;;;;;;8.25;6.50;;;;;22.78;58.25;101039.31;5056154;28;45437;-57
2022/08/24 06:03:38;;;;;;;;;8.00;6.00;;;;;22.79;58.37;101035.66;5074358;27;45437;-56
2022/08/24 06:06:06;;;;;;;;;10.00;7.25;;;;;22.83;58.01;101037.16;5079724;28;45971;-54
2022/08/24 06:08:34;;;;;;;;;9.00;7.75;;;;;22.84;58.56;101039.72;5080061;27;45366;-57
2022/08/24 06:11:00;;;;;;;;;10.00;8.25;;;;;22.88;58.27;101043.03;5062821;28;45491;-56
2022/08/24 06:13:26;;;;;;;;;11.00;7.50;;;;;22.89;58.48;101042.88;5074548;27;45568;-55
2022/08/24 06:16:03;;;;;;;;;8.25;7.00;;;;;22.91;57.86;101042.75;5078458;28;46872;-55
2022/08/24 06:18:29;;;;;;;;;10.25;9.25;;;;;22.94;58.17;101038.06;5053336;28;46047;-56
2022/08/24 06:20:54;;;;;;;;;7.75;7.25;;;;;22.98;58.07;101043.16;5062867;28;67851;-56
2022/08/24 06:23:19;;;;;;;;;7.25;5.00;;;;;23.01;57.64;101040.28;5070013;27;72999;-56
2022/08/24 06:28:31;;;;;;;;;9.25;8.25;;;;;23.06;57.39;101047.00;5076328;27;45308;-57
2022/08/24 06:31:14;;;;;;;;;9.50;8.50;;;;;23.12;57.84;101053.69;5070817;28;45273;-56
2022/08/24 06:33:40;;;;;;;;;12.75;7.00;;;;;23.16;57.56;101046.31;5071802;27;45358;-54
2022/08/24 06:36:05;;;;;;;;;10.50;8.50;;;;;23.19;57.17;101049.59;5050429;28;46181;-56
2022/08/24 06:38:31;;;;;;;;;8.00;7.50;;;;;23.23;57.18;101047.53;5075573;27;45340;-55
2022/08/24 06:40:57;;;;;;;;;12.75;9.00;;;;;23.27;57.13;101049.03;5070287;27;45395;-56
2022/08/24 06:43:26;;;;;;;;;10.00;7.00;;;;;23.31;56.78;101053.16;5057622;28;45372;-55
2022/08/24 06:45:53;;;;;;;;;7.25;7.00;;;;;23.34;56.62;101046.72;5066272;28;46333;-56
2022/08/24 06:48:19;;;;;;;;;10.00;8.25;;;;;23.38;56.74;101041.06;5062448;28;45644;-57
2022/08/24 06:50:45;;;;;;;;;8.50;8.00;;;;;23.43;56.63;101040.72;5055079;28;45347;-56
2022/08/24 06:53:13;;;;;;;;;10.75;9.00;;;;;23.47;56.73;101047.50;5079597;28;45419;-55
2022/08/24 06:55:48;;;;;;;;;8.00;7.25;;;;;23.51;56.61;101038.28;5068326;28;46201;-56
2022/08/24 06:58:14;;;;;;;;;10.25;8.00;;;;;23.53;56.59;101047.03;5072799;27;45693;-54
2022/08/24 07:00:40;;;;;;;;;10.00;6.75;;;;;23.56;56.13;101040.63;5039667;28;45257;-54
2022/08/24 07:03:05;;;;;;;;;10.75;9.25;;;;;23.60;55.90;101045.63;5069494;28;45235;-55
2022/08/24 07:05:30;;;;;;;;;14.75;7.75;;;;;23.64;56.19;101047.06;5067393;27;51554;-55
2022/08/24 07:07:58;;;;;;;;;8.25;8.25;;;;;23.66;55.97;101044.28;5078908;27;57244;-53
2022/08/24 07:10:24;;;;;;;;;11.50;8.00;;;;;23.70;55.69;101048.41;5074156;27;45435;-55
2022/08/24 07:12:49;;;;;;;;;14.00;10.00;;;;;23.74;55.69;101041.00;5077431;28;45470;-54
2022/08/24 07:15:15;;;;;;;;;10.50;9.00;;;;;23.75;55.72;101040.88;5068275;28;73941;-54
2022/08/24 07:17:40;;;;;;;;;11.50;10.50;;;;;23.79;55.61;101041.50;5066277;27;45253;-55
2022/08/24 07:20:07;;;;;;;;;9.50;7.00;;;;;23.84;55.73;101042.03;5041577;28;66604;-54
2022/08/24 07:22:33;;;;;;;;;21.00;13.75;;;;;23.90;55.47;101043.38;5068752;27;45293;-55
2022/08/24 07:24:58;;;;;;;;;12.75;10.00;;;;;23.94;55.27;101040.34;5071484;27;63063;-54
2022/08/24 07:27:23;;;;;;;;;8.25;7.25;;;;;23.99;55.35;101047.97;5078296;27;63420;-59
2022/08/24 07:29:53;;;;;;;;;12.50;10.50;;;;;24.04;55.32;101051.16;5064538;28;45219;-53
2022/08/24 07:32:18;;;;;;;;;13.00;9.00;;;;;24.09;55.17;101045.44;5057189;28;45400;-53
2022/08/24 07:34:43;;;;;;;;;8.00;7.50;;;;;24.14;55.35;101052.13;5067836;28;63286;-55
2022/08/24 07:37:09;;;;;;;;;21.75;12.00;;;;;24.18;54.91;101042.88;5078013;28;58904;-54
2022/08/24 07:39:34;;;;;;;;;21.25;12.00;;;;;24.24;54.68;101052.22;5045578;28;45339;-53
2022/08/24 07:42:00;;;;;;;;;9.25;9.00;;;;;24.31;54.64;101057.94;5067928;27;57584;-54
2022/08/24 07:44:25;;;;;;;;;8.50;7.00;;;;;24.36;54.68;101056.59;5075489;27;45254;-55
2022/08/24 07:46:51;;;;;;;;;9.00;7.25;;;;;24.42;54.35;101066.81;5077951;27;52644;-56
2022/08/24 07:49:16;;;;;;;;;10.00;8.00;;;;;24.47;54.23;101058.44;5053251;28;45407;-56
2022/08/24 07:51:42;;;;;;;;;11.25;7.25;;;;;24.53;53.93;101065.09;5068468;28;45274;-56
2022/08/24 07:54:07;;;;;;;;;10.50;6.75;;;;;24.59;53.74;101057.44;5072641;27;64074;-56
2022/08/24 07:56:33;;;;;;;;;9.00;7.50;;;;;24.64;53.46;101063.28;5071333;27;45305;-59
2022/08/24 07:58:58;;;;;;;;;5.00;4.75;;;;;24.70;52.87;101061.94;5071252;27;45220;-55
2022/08/24 08:01:24;;;;;;;;;4.00;3.00;;;;;24.74;52.46;101068.75;5071149;27;45120;-55
2022/08/24 08:03:50;;;;;;;;;19.00;13.50;;;;;24.79;52.66;101065.69;5063897;28;45323;-51
2022/08/24 08:06:16;;;;;;;;;10.50;9.25;;;;;24.85;52.16;101067.03;5075004;27;45252;-55
2022/08/24 08:08:42;;;;;;;;;3.50;3.50;;;;;24.89;52.23;101077.34;5059597;28;45265;-56
2022/08/24 08:11:09;;;;;;;;;4.00;4.00;;;;;24.95;51.66;101076.00;5072385;27;46765;-55
2022/08/24 08:13:35;;;;;;;;;3.75;3.00;;;;;25.00;51.13;101079.13;5079003;27;45363;-53
2022/08/24 08:16:02;;;;;;;;;5.00;5.00;;;;;25.05;50.91;101079.59;5073602;27;45400;-55
2022/08/24 08:18:28;;;;;;;;;9.00;4.00;;;;;25.14;50.76;101083.34;5070361;27;45470;-55
2022/08/24 08:20:53;;;;;;;;;8.00;6.50;;;;;25.19;50.44;101081.97;5087490;27;45409;-56
2022/08/24 08:26:03;;;;;;;;;3.00;2.75;;;;;25.33;50.16;101080.00;5075093;28;45843;-56
2022/08/24 08:28:31;;;;;;;;;8.50;4.50;;;;;25.41;49.73;101076.66;5050912;27;45336;-54
2022/08/24 08:30:58;;;;;;;;;7.75;4.00;;;;;25.47;50.00;101078.84;5052960;28;45449;-54
2022/08/24 08:33:23;;;;;;;;;12.00;8.00;;;;;25.53;49.77;101078.31;5057336;28;45371;-56
2022/08/24 08:35:50;;;;;;;;;7.00;6.00;;;;;25.62;49.94;101082.03;5061102;28;45263;-55
2022/08/24 08:38:15;;;;;;;;;3.00;2.75;;;;;25.66;49.26;101087.03;5055865;28;45535;-55
2022/08/24 08:40:44;;;;;;;;;3.00;2.50;;;;;25.75;49.57;101086.22;5059563;28;45496;-56
2022/08/24 08:43:27;;;;;;;;;1.00;1.00;;;;;25.85;49.26;101080.06;5053272;28;47085;-53
2022/08/24 08:46:23;;;;;;;;;6.25;4.00;;;;;25.99;48.98;101078.91;5055863;28;45742;-55
2022/08/24 08:49:26;;;;;;;;;3.00;3.00;;;;;26.14;48.40;101080.25;5056063;28;45466;-55
2022/08/24 08:52:26;;;;;;;;;4.00;3.75;;;;;26.29;48.60;101078.06;5054033;28;45380;-55
2022/08/24 08:54:54;;;;;;;;;2.00;1.00;;;;;26.41;48.27;101074.28;5055584;28;46085;-54
2022/08/24 08:57:53;;;;;;;;;19.50;15.00;;;;;26.53;47.83;101083.94;5053207;28;45340;-55
2022/08/24 09:00:42;;;;;;;;;23.75;23.25;;;;;26.65;47.40;101067.75;5050905;28;45397;-52
2022/08/24 09:03:20;;;;;;;;;23.00;19.00;;;;;26.77;47.54;101069.31;5051928;28;45447;-55
2022/08/24 09:06:22;;;;;;;;;12.00;9.00;;;;;26.87;46.69;101072.88;5048340;28;47054;-55
2022/08/24 09:08:56;;;;;;;;;13.25;13.00;;;;;26.98;46.61;101071.03;5029662;28;45396;-51
2022/08/24 09:11:54;;;;;;;;;8.75;8.75;;;;;27.11;46.44;101071.63;5055831;28;45362;-56
2022/08/24 09:14:34;;;;;;;;;7.50;4.25;;;;;27.23;46.92;101073.19;5085864;27;46193;-53
2022/08/24 09:17:17;;;;;;;;;5.00;3.25;;;;;27.36;45.48;101072.91;5053333;28;47313;-55
2022/08/24 09:20:12;;;;;;;;;4.50;3.00;;;;;27.53;46.06;101076.69;5045583;28;45475;-54
2022/08/24 09:22:42;;;;;;;;;1.75;1.75;;;;;27.68;45.33;101068.22;5039493;28;45363;-54
2022/08/24 09:25:31;;;;;;;;;4.25;3.75;;;;;27.82;44.50;101073.97;5050334;28;45422;-54
2022/08/24 09:28:05;;;;;;;;;2.75;2.75;;;;;27.94;45.37;101080.06;5045330;28;47165;-53
2022/08/24 09:30:44;;;;;;;;;1.00;1.00;;;;;28.06;44.01;101077.19;5058567;28;45633;-53
2022/08/24 09:33:21;;;;;;;;;4.25;1.75;;;;;28.20;43.20;101079.38;5059198;28;45311;-54
2022/08/24 09:35:49;;;;;;;;;6.00;4.75;;;;;28.34;42.78;101076.19;5074204;28;45471;-53
2022/08/24 09:38:42;;;;;;;;;7.75;5.00;;;;;28.48;43.39;101079.41;5073303;27;46374;-56
2022/08/24 09:41:26;;;;;;;;;5.50;2.75;;;;;28.58;42.43;101091.00;5062145;28;45465;-55
2022/08/24 09:44:12;;;;;;;;;1.25;1.25;;;;;28.67;42.12;101075.75;5070913;27;45231;-54
2022/08/24 09:47:14;;;;;;;;;2.25;0.75;;;;;28.74;41.71;101080.41;5074016;27;45304;-56
2022/08/24 09:49:45;;;;;;;;;2.00;0.25;;;;;28.83;41.19;101075.97;5068419;28;45396;-56
2022/08/24 09:52:38;;;;;;;;;2.00;0.50;;;;;28.93;41.24;101071.34;5069871;27;45572;-57
2022/08/24 09:55:37;;;;;;;;;1.00;1.00;;;;;29.04;41.28;101074.78;5079518;27;45277;-59
2022/08/24 09:58:44;;;;;;;;;2.50;1.00;;;;;29.12;40.54;101070.31;5055087;28;45312;-55
2022/08/24 10:01:17;;;;;;;;;6.50;5.50;;;;;29.21;40.85;101071.28;5045878;27;46108;-56
2022/08/24 10:04:07;;;;;;;;;2.00;2.00;;;;;29.29;40.44;101059.75;5070446;28;45730;-53
2022/08/24 10:06:35;;;;;;;;;19.25;16.00;;;;;29.35;41.03;101068.03;5076031;28;45303;-56
2022/08/24 10:09:10;;;;;;;;;76.50;47.75;;;;;29.42;41.00;101060.16;5066277;27;45419;-56
2022/08/24 10:12:05;;;;;;;;;77.75;46.75;;;;;29.47;40.83;101063.25;5054175;28;45884;-55
2022/08/24 10:14:42;;;;;;;;;31.00;17.25;;;;;29.52;40.71;101060.91;5066978;28;45925;-56
2022/08/24 10:17:19;;;;;;;;;47.75;31.75;;;;;29.56;41.22;101060.63;5076476;27;45323;-56
2022/08/24 10:19:54;;;;;;;;;77.25;44.00;;;;;29.57;41.20;101051.50;5051483;27;45444;-57
2022/08/24 10:22:23;;;;;;;;;47.50;26.75;;;;;29.57;41.06;101046.97;5079927;27;45599;-57
2022/08/24 10:25:05;;;;;;;;;10.00;7.50;;;;;29.59;40.43;101050.34;5045048;28;45509;-57
2022/08/24 10:28:26;;;;;;;;;5.75;1.75;;;;;29.66;40.18;101050.53;5061222;27;45320;-56
2022/08/24 10:31:04;;;;;;;;;4.00;1.75;;;;;29.74;39.29;101045.22;5053361;28;45268;-56
2022/08/24 10:33:35;;;;;;;;;3.00;1.75;;;;;29.80;39.17;101041.94;5076734;28;45601;-57
2022/08/24 10:36:29;;;;;;;;;2.00;0.00;;;;;29.90;38.99;101047.19;5076584;27;45350;-57
2022/08/24 10:41:56;;;;;;;;;1.00;1.00;;;;;30.05;38.48;101033.97;5071844;28;45226;-57
2022/08/24 10:44:47;;;;;;;;;1.50;1.50;;;;;30.13;38.16;101041.22;5061234;28;47056;-56
2022/08/24 10:47:20;;;;;;;;;4.50;2.75;;;;;30.20;37.53;101040.41;5075877;27;45447;-57
2022/08/24 10:50:04;;;;;;;;;3.50;2.25;;;;;30.24;38.06;101039.09;5079702;27;45625;-57
2022/08/24 10:52:47;;;;;;;;;8.00;5.75;;;;;30.28;38.22;101035.06;5075524;27;45387;-56
2022/08/24 10:55:19;;;;;;;;;9.50;6.25;;;;;30.29;38.40;101035.88;5067759;28;45614;-56
2022/08/24 10:58:06;;;;;;;;;9.50;9.25;;;;;30.31;38.24;101038.44;5050613;28;45726;-56
2022/08/24 11:00:32;;;;;;;;;13.50;9.00;;;;;30.25;38.60;101029.97;5100603;27;45423;-55
2022/08/24 11:03:10;;;;;;;;;2.25;2.25;;;;;30.19;39.14;101025.25;5053558;28;45553;-55
2022/08/24 11:05:46;;;;;;;;;0.00;0.00;;;;;30.14;38.66;101030.28;5075653;27;45702;-57
2022/08/24 11:08:29;;;;;;;;;2.00;2.00;;;;;30.12;38.13;101029.59;5059091;28;45341;-57
2022/08/24 11:11:11;;;;;;;;;7.00;6.00;;;;;30.12;37.73;101023.34;5070414;28;45478;-56
2022/08/24 11:13:49;;;;;;;;;7.00;7.00;;;;;30.14;38.02;101018.63;5061677;28;45238;-57
2022/08/24 11:16:36;;;;;;;;;13.00;11.75;;;;;30.17;37.86;101015.59;5065496;27;45450;-57
2022/08/24 11:19:06;;;;;;;;;8.50;7.00;;;;;30.18;37.85;101010.03;5077753;27;45466;-58
2022/08/24 11:21:48;;;;;;;;;6.25;5.25;;;;;30.18;37.77;101011.91;5071655;28;45379;-57
2022/08/24 11:24:16;;;;;;;;;12.50;12.00;;;;;30.17;37.97;101007.50;5061084;28;45378;-57
2022/08/24 11:26:56;;;;;;;;;6.00;3.75;;;;;30.16;37.74;101005.81;5073590;28;45855;-58
2022/08/24 11:29:29;;;;;;;;;2.75;2.75;;;;;30.14;37.65;101002.41;5048397;28;45427;-57
2022/08/24 11:31:54;;;;;;;;;3.75;3.50;;;;;30.12;36.83;100999.03;5072204;28;45290;-57
2022/08/24 11:34:35;;;;;;;;;7.75;5.75;;;;;30.08;37.57;100993.13;5054020;28;45332;-58
2022/08/24 11:37:02;;;;;;;;;6.00;5.00;;;;;30.05;37.85;100985.38;5078135;28;46505;-57
2022/08/24 11:39:34;;;;;;;;;1.00;1.00;;;;;30.04;37.66;100980.97;5050258;28;45237;-58
2022/08/24 11:42:22;;;;;;;;;4.00;3.00;;;;;30.02;37.70;100986.53;5062278;28;45296;-57
2022/08/24 11:44:53;;;;;;;;;1.00;1.00;;;;;30.00;36.69;100985.84;5073624;28;45205;-58
2022/08/24 11:47:40;;;;;;;;;0.75;0.75;;;;;30.01;37.43;100984.00;5074520;28;45972;-58
2022/08/24 11:50:22;;;;;;;;;3.75;2.75;;;;;29.99;36.24;100977.91;5070926;28;45383;-58